Du har inga inställningar för hoppväder.nu

Hoppväder.nu

Senast uppdaterat 00:15

UTC-tid

2019-06-25 kl. 22:15


Sol och måne

Solen går upp 3:43 och går ner 23:07 (beräknade cirkatider)
Nästa fullmåne blir om 20 dagar (2019-07-16)

METAR

ESKN (Skavsta)
(25 minuter sedan)
ESKN 252150Z 12004KT 9999 -SHRA BKN062CB 16/16 Q1022=



ESSB (Bromma)
(25 minuter sedan)
ESSB 252150Z AUTO 14003KT 9999 DZ BKN059/// OVC076/// 16/14 Q1023 REDZ=



ESOE (Örebro)
(25 minuter sedan)
ESOE 252150Z 02006KT 9999 -DZ NSC 15/14 Q1022=



ESSL (Linköping)
(25 minuter sedan)
ESSL 252150Z AUTO 36005KT 330V040 9999 -RA FEW053/// SCT080/// ///// Q1022=



ESSP (Norrköping)
(25 minuter sedan)
ESSP 252150Z AUTO 04004KT 9999 -RA OVC074/// 16/16 Q1022=



TAF

ESKN (Skavsta)
(285 minuter sedan)
ESKN 251730Z 2518/2618 12010KT CAVOK BECMG 2523/2601 04003KT TEMPO 2607/2615 08015KT 4000 SHRA TS BKN010 BKN060CB=



ESSB (Bromma)
(285 minuter sedan)
ESSB 251730Z 2518/2520 15006KT CAVOK PROB40 2519/2520 RA=



ESOE (Örebro)
(105 minuter sedan)
ESOE 252030Z 2521/2601 01003KT CAVOK PROB40 2521/2601 4000 RA BR=



ESSL (Linköping)
(285 minuter sedan)
ESSL 251730Z 2518/2522 12007KT CAVOK=



ESSP (Norrköping)
ESSP





Kodnycklar till TAF och METAR






LHP

(Nyköping är område G1b i Södra delen)

Prognos är inte uppdaterad




Spotting

Hur fungerar spotthjälpen och Vindkartan?

Markvind är ca 0 m/s.



Vindkartan

Senast uppdaterad 00:15




All data kommer från LFV.se